Time,TemperatureF,DewpointF,PressureIn,WindDirection,WindDirectionDegrees,WindSpeedMPH,WindSpeedGustMPH,Humidity,HourlyPrecipIn,Conditions,Clouds,dailyrainin,SolarRadiationWatts/m^2,SoftwareType,DateUTC
2013-09-10 00:01:00,64.0,50.0,-100.00,SW,233,0.0,2.0,60,0.00,,,0.00,0.000000,,2013-09-10 07:01:00,
2013-09-10 00:22:00,63.0,46.0,-100.00,SW,225,2.0,5.0,54,0.00,,,0.00,0.000000,,2013-09-10 07:22:00,
2013-09-10 00:32:00,63.0,46.0,-100.00,SW,225,2.0,5.0,54,0.00,,,0.00,0.000000,,2013-09-10 07:32:00,
2013-09-10 00:42:00,63.0,46.0,-100.00,SW,225,2.0,5.0,54,0.00,,,0.00,0.000000,,2013-09-10 07:42:00,
2013-09-10 00:52:00,63.0,46.0,-100.00,SW,225,2.0,5.0,54,0.00,,,0.00,0.000000,,2013-09-10 07:52:00,
2013-09-10 01:02:00,63.0,46.0,-100.00,SW,225,2.0,5.0,54,0.00,,,0.00,0.000000,,2013-09-10 08:02:00,
2013-09-10 01:42:00,65.0,40.0,-100.00,SSW,207,3.0,5.0,40,0.00,,,0.00,0.000000,,2013-09-10 08:42:00,
2013-09-10 01:52:00,65.0,40.0,-100.00,SSW,207,3.0,5.0,40,0.00,,,0.00,0.000000,,2013-09-10 08:52:00,
2013-09-10 02:02:00,65.0,40.0,-100.00,SSW,207,3.0,5.0,40,0.00,,,0.00,0.000000,,2013-09-10 09:02:00,
2013-09-10 02:22:00,60.0,47.0,-100.00,ENE,71,2.0,5.0,61,0.00,,,0.00,0.000000,,2013-09-10 09:22:00,
2013-09-10 02:33:00,60.0,47.0,-100.00,ENE,71,2.0,5.0,61,0.00,,,0.00,0.000000,,2013-09-10 09:33:00,
2013-09-10 02:43:00,60.0,47.0,-100.00,ENE,71,2.0,5.0,61,0.00,,,0.00,0.000000,,2013-09-10 09:43:00,
2013-09-10 02:54:00,60.0,47.0,-100.00,ENE,71,2.0,5.0,61,0.00,,,0.00,0.000000,,2013-09-10 09:54:00,
2013-09-10 03:03:00,60.0,47.0,-100.00,ENE,71,2.0,5.0,61,0.00,,,0.00,0.000000,,2013-09-10 10:03:00,
2013-09-10 03:24:00,56.0,52.0,-100.00,East,79,2.0,4.0,85,0.00,,,0.00,0.000000,,2013-09-10 10:24:00,
2013-09-10 03:33:00,56.0,52.0,-100.00,East,79,2.0,4.0,85,0.00,,,0.00,0.000000,,2013-09-10 10:33:00,
2013-09-10 03:42:00,56.0,52.0,-100.00,East,79,2.0,4.0,85,0.00,,,0.00,0.000000,,2013-09-10 10:42:00,
2013-09-10 03:53:00,56.0,52.0,-100.00,East,79,2.0,4.0,85,0.00,,,0.00,0.000000,,2013-09-10 10:53:00,
2013-09-10 04:03:00,56.0,52.0,-100.00,East,79,2.0,4.0,85,0.00,,,0.00,0.000000,,2013-09-10 11:03:00,
2013-09-10 07:52:00,53.0,52.0,-100.00,NW,320,1.0,3.0,95,-99.99,,,0.00,2.000000,,2013-09-10 14:52:00,
2013-09-10 08:02:00,53.0,52.0,-100.00,NW,320,1.0,3.0,95,-99.99,,,0.00,2.000000,,2013-09-10 15:02:00,
2013-09-10 08:43:00,54.0,52.0,-100.00,East,93,2.0,6.0,93,0.00,,,0.00,36.000000,,2013-09-10 15:43:00,
2013-09-10 08:54:00,54.0,52.0,-100.00,East,93,2.0,6.0,93,0.00,,,0.00,36.000000,,2013-09-10 15:54:00,
2013-09-10 09:03:00,54.0,52.0,-100.00,East,93,2.0,6.0,93,0.00,,,0.00,36.000000,,2013-09-10 16:03:00,
2013-09-10 09:43:00,59.0,53.0,-100.00,NE,34,2.0,6.0,81,0.00,,,0.00,154.000000,,2013-09-10 16:43:00,
2013-09-10 09:53:00,59.0,53.0,-100.00,NE,34,2.0,6.0,81,0.00,,,0.00,154.000000,,2013-09-10 16:53:00,
2013-09-10 10:03:00,59.0,53.0,-100.00,NE,34,2.0,6.0,81,0.00,,,0.00,154.000000,,2013-09-10 17:03:00,
2013-09-10 10:43:00,66.0,53.0,-100.00,ESE,105,5.0,7.0,63,0.00,,,0.00,489.000000,,2013-09-10 17:43:00,
2013-09-10 10:52:00,66.0,53.0,-100.00,ESE,105,5.0,7.0,63,0.00,,,0.00,489.000000,,2013-09-10 17:52:00,
2013-09-10 11:02:00,66.0,53.0,-100.00,ESE,105,5.0,7.0,63,0.00,,,0.00,489.000000,,2013-09-10 18:02:00,
2013-09-10 11:22:00,71.0,53.0,-100.00,ENE,76,5.0,11.0,53,-99.99,,,0.00,659.000000,,2013-09-10 18:22:00,
2013-09-10 11:32:00,71.0,53.0,-100.00,ENE,76,5.0,11.0,53,-99.99,,,0.00,659.000000,,2013-09-10 18:32:00,
2013-09-10 11:43:00,71.0,53.0,-100.00,ENE,76,5.0,11.0,53,-99.99,,,0.00,659.000000,,2013-09-10 18:43:00,
2013-09-10 11:52:00,71.0,53.0,-100.00,ENE,76,5.0,11.0,53,-99.99,,,0.00,659.000000,,2013-09-10 18:52:00,
2013-09-10 12:02:00,71.0,53.0,-100.00,ENE,76,5.0,11.0,53,-99.99,,,0.00,659.000000,,2013-09-10 19:02:00,
2013-09-10 18:42:00,79.0,52.0,-100.00,ENE,75,4.0,13.0,39,-99.99,,,0.00,222.000000,,2013-09-11 01:42:00,
2013-09-10 19:22:00,71.0,54.0,-100.00,East,91,6.0,14.0,55,-99.99,,,0.00,30.000000,,2013-09-11 02:22:00,
2013-09-10 19:32:00,71.0,54.0,-100.00,East,91,6.0,14.0,55,-99.99,,,0.00,30.000000,,2013-09-11 02:32:00,
2013-09-10 19:43:00,71.0,54.0,-100.00,East,91,6.0,14.0,55,-99.99,,,0.00,30.000000,,2013-09-11 02:43:00,
2013-09-10 19:52:00,71.0,54.0,-100.00,East,91,6.0,14.0,55,-99.99,,,0.00,30.000000,,2013-09-11 02:52:00,
2013-09-10 20:02:00,71.0,54.0,-100.00,East,91,6.0,14.0,55,-99.99,,,0.00,30.000000,,2013-09-11 03:02:00,
2013-09-10 20:04:00,66.0,54.0,-100.00,East,96,3.0,11.0,66,-99.99,,,0.00,3.000000,,2013-09-11 03:04:00,
2013-09-10 20:45:00,66.0,54.0,-100.00,East,96,3.0,11.0,66,-99.99,,,0.00,3.000000,,2013-09-11 03:45:00,
2013-09-10 20:54:00,66.0,54.0,-100.00,East,96,3.0,11.0,66,-99.99,,,0.00,3.000000,,2013-09-11 03:54:00,
2013-09-10 21:24:00,62.0,55.0,-100.00,North,355,1.0,7.0,78,0.00,,,0.00,0.000000,,2013-09-11 04:24:00,
2013-09-10 21:33:00,62.0,55.0,-100.00,North,355,1.0,7.0,78,0.00,,,0.00,0.000000,,2013-09-11 04:33:00,
2013-09-10 21:44:00,62.0,55.0,-100.00,North,355,1.0,7.0,78,0.00,,,0.00,0.000000,,2013-09-11 04:44:00,
2013-09-10 21:54:00,62.0,55.0,-100.00,North,355,1.0,7.0,78,0.00,,,0.00,0.000000,,2013-09-11 04:54:00,
2013-09-10 22:03:00,62.0,55.0,-100.00,North,355,1.0,7.0,78,0.00,,,0.00,0.000000,,2013-09-11 05:03:00,
2013-09-10 22:23:00,59.0,54.0,-100.00,North,352,1.0,6.0,84,0.00,,,0.00,0.000000,,2013-09-11 05:23:00,
2013-09-10 22:34:00,59.0,54.0,-100.00,North,352,1.0,6.0,84,0.00,,,0.00,0.000000,,2013-09-11 05:34:00,
2013-09-10 22:43:00,59.0,54.0,-100.00,North,352,1.0,6.0,84,0.00,,,0.00,0.000000,,2013-09-11 05:43:00,
2013-09-10 22:53:00,59.0,54.0,-100.00,North,352,1.0,6.0,84,0.00,,,0.00,0.000000,,2013-09-11 05:53:00,
2013-09-10 23:02:00,59.0,54.0,-100.00,North,352,1.0,6.0,84,0.00,,,0.00,0.000000,,2013-09-11 06:02:00,
2013-09-10 23:22:00,57.0,53.0,-100.00,South,169,0.0,2.0,88,0.00,,,0.00,0.000000,,2013-09-11 06:22:00,
2013-09-10 23:33:00,57.0,53.0,-100.00,South,169,0.0,2.0,88,0.00,,,0.00,0.000000,,2013-09-11 06:33:00,
2013-09-10 23:42:00,57.0,53.0,-100.00,South,169,0.0,2.0,88,0.00,,,0.00,0.000000,,2013-09-11 06:42:00,
2013-09-10 23:52:00,57.0,53.0,-100.00,South,169,0.0,2.0,88,0.00,,,0.00,0.000000,,2013-09-11 06:52:00,